createdAt,value
2018-12-25T00:00:42.173Z,2.40
2018-12-25T00:03:22.807Z,2.40
2018-12-25T00:06:03.357Z,2.40
2018-12-25T00:08:44.241Z,2.40
2018-12-25T00:11:24.949Z,2.40
2018-12-25T00:14:06.250Z,2.40
2018-12-25T00:16:47.097Z,2.40
2018-12-25T00:19:27.790Z,2.40
2018-12-25T00:22:08.636Z,2.40
2018-12-25T00:24:49.264Z,2.40
2018-12-25T00:27:29.847Z,2.50
2018-12-25T00:30:08.781Z,2.40
2018-12-25T00:32:56.472Z,2.30
2018-12-25T00:35:44.165Z,2.40
2018-12-25T00:38:31.873Z,2.30
2018-12-25T00:41:19.559Z,2.30
2018-12-25T00:44:07.233Z,2.40
2018-12-25T00:46:54.927Z,2.30
2018-12-25T00:49:42.628Z,2.30
2018-12-25T00:52:30.398Z,2.20
2018-12-25T00:55:18.090Z,2.20
2018-12-25T01:01:12.567Z,2.00
2018-12-25T01:04:00.239Z,2.00
2018-12-25T01:06:47.931Z,1.80
2018-12-25T01:09:35.611Z,1.70
2018-12-25T01:12:23.310Z,1.80
2018-12-25T01:15:10.988Z,1.80
2018-12-25T01:17:58.697Z,1.80
2018-12-25T01:20:46.640Z,1.80
2018-12-25T01:23:34.321Z,1.70
2018-12-25T01:26:15.491Z,1.70
2018-12-25T01:28:56.345Z,1.70
2018-12-25T01:31:37.320Z,1.60
2018-12-25T01:34:17.995Z,1.60
2018-12-25T01:36:58.952Z,1.60
2018-12-25T01:39:39.865Z,1.70
2018-12-25T01:42:20.298Z,1.70
2018-12-25T01:45:00.908Z,1.70
2018-12-25T01:47:41.706Z,1.70
2018-12-25T01:50:22.375Z,1.60
2018-12-25T01:53:03.246Z,1.60
2018-12-25T01:55:43.617Z,1.60
2018-12-25T01:58:24.174Z,1.60
2018-12-25T02:01:05.117Z,1.50
2018-12-25T02:03:46.240Z,1.50
2018-12-25T02:06:26.771Z,1.50
2018-12-25T02:09:08.016Z,1.50
2018-12-25T02:11:48.225Z,1.50
2018-12-25T02:14:29.264Z,1.50
2018-12-25T02:17:09.965Z,1.50
2018-12-25T02:19:50.670Z,1.40
2018-12-25T02:22:31.263Z,1.40
2018-12-25T02:25:12.110Z,1.40
2018-12-25T02:27:52.713Z,1.40
2018-12-25T02:30:33.687Z,1.40
2018-12-25T02:33:14.436Z,1.40
2018-12-25T02:35:54.895Z,1.30
2018-12-25T02:38:35.543Z,1.40
2018-12-25T02:41:16.436Z,1.30
2018-12-25T02:43:57.314Z,1.30
2018-12-25T02:46:38.015Z,1.40
2018-12-25T02:49:18.504Z,1.40
2018-12-25T02:51:59.479Z,1.30
2018-12-25T02:54:40.315Z,1.30
2018-12-25T02:57:21.044Z,1.40
2018-12-25T03:00:01.532Z,1.30
2018-12-25T03:02:42.245Z,1.30
2018-12-25T03:05:23.013Z,1.30
2018-12-25T03:08:03.335Z,1.20
2018-12-25T03:10:43.792Z,1.30
2018-12-25T03:13:24.473Z,1.20
2018-12-25T03:16:05.188Z,1.10
2018-12-25T03:18:45.748Z,1.10
2018-12-25T03:21:26.320Z,1.10
2018-12-25T03:24:07.282Z,1.10
2018-12-25T03:26:47.945Z,1.10
2018-12-25T03:29:28.493Z,1.10
2018-12-25T03:32:08.977Z,1.00
2018-12-25T03:34:49.680Z,1.10
2018-12-25T03:37:30.521Z,1.10
2018-12-25T03:40:14.173Z,1.10
2018-12-25T03:42:54.739Z,1.10
2018-12-25T03:45:35.404Z,1.10
2018-12-25T03:48:16.470Z,1.10
2018-12-25T03:50:57.276Z,1.10
2018-12-25T03:53:37.861Z,1.00
2018-12-25T03:56:18.940Z,1.00
2018-12-25T03:58:59.954Z,1.10
2018-12-25T04:01:40.894Z,1.00
2018-12-25T04:04:21.675Z,0.90
2018-12-25T04:07:02.813Z,0.90
2018-12-25T04:09:43.588Z,0.90
2018-12-25T04:12:24.356Z,0.90
2018-12-25T04:15:04.727Z,0.90
2018-12-25T04:17:45.409Z,0.80
2018-12-25T04:20:26.417Z,0.80
2018-12-25T04:23:07.162Z,0.80
2018-12-25T04:25:48.101Z,0.80
2018-12-25T04:28:29.073Z,0.80
2018-12-25T04:31:09.911Z,0.80
2018-12-25T04:33:50.158Z,0.90
2018-12-25T04:36:31.584Z,0.80
2018-12-25T04:39:11.887Z,0.80
2018-12-25T04:41:52.709Z,0.80
2018-12-25T04:44:33.411Z,0.90
2018-12-25T04:47:14.439Z,0.80
2018-12-25T04:49:55.061Z,0.90
2018-12-25T04:52:36.259Z,0.90
2018-12-25T04:55:17.231Z,1.00
2018-12-25T04:57:58.397Z,1.10
2018-12-25T05:00:39.212Z,1.10
2018-12-25T05:03:19.855Z,1.10
2018-12-25T05:06:00.867Z,1.00
2018-12-25T05:08:41.710Z,1.00
2018-12-25T05:11:22.429Z,1.00
2018-12-25T05:14:02.995Z,1.10
2018-12-25T05:16:43.955Z,1.10
2018-12-25T05:19:24.734Z,1.10
2018-12-25T05:22:05.664Z,1.20
2018-12-25T05:24:46.426Z,1.10
2018-12-25T05:27:26.811Z,1.10
2018-12-25T05:30:07.455Z,1.20
2018-12-25T05:32:48.221Z,1.20
2018-12-25T05:35:29.009Z,1.20
2018-12-25T05:38:10.060Z,1.20
2018-12-25T05:40:50.836Z,1.20
2018-12-25T05:43:31.563Z,1.20
2018-12-25T05:46:12.431Z,1.30
2018-12-25T05:48:53.433Z,1.30
2018-12-25T05:51:34.200Z,1.30
2018-12-25T05:54:15.200Z,1.30
2018-12-25T05:56:55.805Z,1.40
2018-12-25T05:59:36.899Z,1.40
2018-12-25T06:02:17.638Z,1.50
2018-12-25T06:04:58.384Z,1.50
2018-12-25T06:07:39.511Z,1.50
2018-12-25T06:10:20.308Z,1.50
2018-12-25T06:13:01.569Z,1.50
2018-12-25T06:15:41.752Z,1.50
2018-12-25T06:18:22.869Z,1.40
2018-12-25T06:21:03.662Z,1.40
2018-12-25T06:23:44.100Z,1.50
2018-12-25T06:26:24.633Z,1.40
2018-12-25T06:29:05.418Z,1.50
2018-12-25T06:31:46.160Z,1.50
2018-12-25T06:34:26.908Z,1.50
2018-12-25T06:37:07.802Z,1.50
2018-12-25T06:39:48.377Z,1.50
2018-12-25T06:42:28.936Z,1.50
2018-12-25T06:45:09.814Z,1.50
2018-12-25T06:47:50.460Z,1.60
2018-12-25T06:50:31.481Z,1.50
2018-12-25T06:53:12.216Z,1.60
2018-12-25T06:55:53.070Z,1.60
2018-12-25T06:58:33.773Z,1.60
2018-12-25T07:01:14.684Z,1.60
2018-12-25T07:03:55.308Z,1.60
2018-12-25T07:06:35.914Z,1.60
2018-12-25T07:09:16.458Z,1.60
2018-12-25T07:11:57.127Z,1.60
2018-12-25T07:14:38.100Z,1.70
2018-12-25T07:17:18.972Z,1.70
2018-12-25T07:19:59.647Z,1.70
2018-12-25T07:22:40.333Z,1.60
2018-12-25T07:25:21.381Z,1.60
2018-12-25T07:28:01.601Z,1.60
2018-12-25T07:30:42.232Z,1.40
2018-12-25T07:33:23.221Z,1.50
2018-12-25T07:36:04.465Z,1.50
2018-12-25T07:38:44.864Z,1.40
2018-12-25T07:41:25.264Z,1.40
2018-12-25T07:44:06.312Z,1.40
2018-12-25T07:46:46.961Z,1.40
2018-12-25T07:49:27.808Z,1.40
2018-12-25T07:52:08.235Z,1.50
2018-12-25T07:54:48.694Z,1.60
2018-12-25T07:57:29.566Z,1.60
2018-12-25T08:00:10.361Z,1.70
2018-12-25T08:02:51.253Z,1.70
2018-12-25T08:05:31.743Z,1.70
2018-12-25T08:08:12.804Z,1.80
2018-12-25T08:10:53.075Z,1.80
2018-12-25T08:13:33.697Z,1.80
2018-12-25T08:16:14.172Z,1.80
2018-12-25T08:18:54.781Z,1.70
2018-12-25T08:21:35.378Z,1.70
2018-12-25T08:24:16.037Z,1.70
2018-12-25T08:26:56.788Z,1.70
2018-12-25T08:29:37.618Z,1.60
2018-12-25T08:32:18.484Z,1.70
2018-12-25T08:34:59.360Z,1.60
2018-12-25T08:37:40.095Z,1.70
2018-12-25T08:40:20.537Z,1.80
2018-12-25T08:43:01.368Z,1.50
2018-12-25T08:45:42.258Z,1.60
2018-12-25T08:48:23.183Z,1.60
2018-12-25T08:51:04.170Z,1.70
2018-12-25T08:53:45.175Z,1.70
2018-12-25T08:56:25.763Z,1.80
2018-12-25T08:59:06.628Z,1.90
2018-12-25T09:01:46.813Z,2.00
2018-12-25T09:04:27.270Z,2.00
2018-12-25T09:07:07.869Z,1.80
2018-12-25T09:09:48.182Z,1.90
2018-12-25T09:12:28.997Z,1.90
2018-12-25T09:15:09.868Z,2.00
2018-12-25T09:17:50.235Z,2.00
2018-12-25T09:20:31.241Z,2.00
2018-12-25T09:23:11.989Z,2.10
2018-12-25T09:25:53.037Z,2.20
2018-12-25T09:28:33.852Z,2.30
2018-12-25T09:31:14.680Z,2.30
2018-12-25T09:33:55.395Z,2.30
2018-12-25T09:36:36.318Z,2.30
2018-12-25T09:39:16.672Z,2.30
2018-12-25T09:41:57.751Z,2.40
2018-12-25T09:44:38.476Z,2.50
2018-12-25T09:47:19.252Z,2.40
2018-12-25T09:50:00.159Z,2.50
2018-12-25T09:52:40.884Z,2.50
2018-12-25T09:55:22.236Z,2.50
2018-12-25T09:58:03.309Z,2.50
2018-12-25T10:00:44.163Z,2.40
2018-12-25T10:03:24.927Z,2.40
2018-12-25T10:06:05.446Z,2.50
2018-12-25T10:08:46.205Z,2.60
2018-12-25T10:11:26.888Z,2.60
2018-12-25T10:14:07.828Z,2.70
2018-12-25T10:16:49.848Z,2.70
2018-12-25T10:19:31.061Z,2.70
2018-12-25T10:22:11.902Z,2.80
2018-12-25T10:24:52.426Z,2.80
2018-12-25T10:27:33.061Z,2.90
2018-12-25T10:30:13.870Z,2.90
2018-12-25T10:32:54.891Z,3.00
2018-12-25T10:35:35.951Z,3.00
2018-12-25T10:38:16.862Z,3.10
2018-12-25T10:40:57.883Z,3.10
2018-12-25T10:43:38.410Z,3.10
2018-12-25T10:46:19.045Z,3.10
2018-12-25T10:48:59.312Z,3.20
2018-12-25T10:51:40.136Z,3.10
2018-12-25T10:54:20.886Z,3.20
2018-12-25T10:57:01.437Z,3.20
2018-12-25T10:59:42.307Z,3.30
2018-12-25T11:02:22.978Z,3.40
2018-12-25T11:05:03.568Z,3.40
2018-12-25T11:07:44.158Z,3.50
2018-12-25T11:10:24.657Z,3.50
2018-12-25T11:13:05.840Z,3.60
2018-12-25T11:15:46.355Z,3.70
2018-12-25T11:18:27.142Z,3.80
2018-12-25T11:21:08.360Z,3.80
2018-12-25T11:23:49.028Z,3.90
2018-12-25T11:26:29.491Z,4.00
2018-12-25T11:29:10.180Z,4.00
2018-12-25T11:31:51.441Z,4.10
2018-12-25T11:34:31.860Z,4.20
2018-12-25T11:37:12.917Z,4.20
2018-12-25T11:39:53.441Z,4.20
2018-12-25T11:42:33.673Z,4.20
2018-12-25T11:45:14.470Z,4.30
2018-12-25T11:47:55.665Z,4.30
2018-12-25T11:50:36.490Z,4.40
2018-12-25T11:53:17.536Z,4.40
2018-12-25T11:55:58.539Z,4.40
2018-12-25T11:58:39.399Z,4.40
2018-12-25T12:01:20.021Z,4.50
2018-12-25T12:04:00.508Z,4.60
2018-12-25T12:06:41.583Z,4.60
2018-12-25T12:09:22.212Z,4.70
2018-12-25T12:12:03.163Z,4.70
2018-12-25T12:14:44.272Z,4.70
2018-12-25T12:17:24.924Z,4.70
2018-12-25T12:20:05.454Z,4.70
2018-12-25T12:22:46.377Z,4.80
2018-12-25T12:25:26.969Z,4.80
2018-12-25T12:28:07.644Z,4.90
2018-12-25T12:30:48.688Z,4.90
2018-12-25T12:33:29.457Z,4.90
2018-12-25T12:36:10.264Z,4.90
2018-12-25T12:38:51.288Z,5.00
2018-12-25T12:41:32.238Z,5.00
2018-12-25T12:44:13.207Z,5.10
2018-12-25T12:46:54.097Z,5.10
2018-12-25T12:49:34.686Z,5.20
2018-12-25T12:52:15.648Z,5.20
2018-12-25T12:54:56.596Z,5.20
2018-12-25T12:57:37.504Z,5.40
2018-12-25T13:00:18.686Z,5.40
2018-12-25T13:02:59.313Z,5.40
2018-12-25T13:05:39.656Z,5.40
2018-12-25T13:08:20.404Z,5.40
2018-12-25T13:11:00.916Z,5.40
2018-12-25T13:13:41.826Z,5.40
2018-12-25T13:16:22.701Z,5.50
2018-12-25T13:19:03.132Z,5.50
2018-12-25T13:21:43.972Z,5.50
2018-12-25T13:24:24.692Z,5.60
2018-12-25T13:27:05.312Z,5.60
2018-12-25T13:29:46.270Z,5.60
2018-12-25T13:32:26.768Z,5.60
2018-12-25T13:35:07.551Z,5.60
2018-12-25T13:37:48.388Z,5.60
2018-12-25T13:40:28.827Z,5.60
2018-12-25T13:43:09.994Z,5.50
2018-12-25T13:45:50.678Z,5.60
2018-12-25T13:48:31.330Z,5.60
2018-12-25T13:51:12.291Z,5.50
2018-12-25T13:53:53.186Z,5.60
2018-12-25T13:56:34.249Z,5.60
2018-12-25T13:59:15.015Z,5.60
2018-12-25T14:01:55.766Z,5.60
2018-12-25T14:04:36.161Z,5.50
2018-12-25T14:07:16.950Z,5.50
2018-12-25T14:09:57.722Z,5.50
2018-12-25T14:12:38.716Z,5.50
2018-12-25T14:15:19.554Z,5.50
2018-12-25T14:18:00.437Z,5.60
2018-12-25T14:20:41.238Z,5.60
2018-12-25T14:23:21.878Z,5.60
2018-12-25T14:26:02.972Z,5.60
2018-12-25T14:28:43.809Z,5.60
2018-12-25T14:31:24.576Z,5.60
2018-12-25T14:34:05.512Z,5.60
2018-12-25T14:36:46.132Z,5.60
2018-12-25T14:39:26.884Z,5.60
2018-12-25T14:42:07.432Z,5.60
2018-12-25T14:44:48.166Z,5.60
2018-12-25T14:47:28.796Z,5.60
2018-12-25T14:50:09.635Z,5.60
2018-12-25T14:52:50.447Z,5.60
2018-12-25T14:55:31.141Z,5.60
2018-12-25T14:58:12.037Z,5.60
2018-12-25T15:00:53.548Z,5.50
2018-12-25T15:03:34.480Z,5.60
2018-12-25T15:06:15.138Z,5.50
2018-12-25T15:08:55.568Z,5.50
2018-12-25T15:11:36.398Z,5.60
2018-12-25T15:14:17.000Z,5.60
2018-12-25T15:16:57.713Z,5.50
2018-12-25T15:19:38.092Z,5.50
2018-12-25T15:22:19.112Z,5.50
2018-12-25T15:25:00.171Z,5.50
2018-12-25T15:27:40.708Z,5.50
2018-12-25T15:30:21.678Z,5.50
2018-12-25T15:33:02.285Z,5.50
2018-12-25T15:35:43.444Z,5.50
2018-12-25T15:38:23.864Z,5.50
2018-12-25T15:41:04.743Z,5.40
2018-12-25T15:43:45.019Z,5.40
2018-12-25T15:46:25.636Z,5.40
2018-12-25T15:49:06.112Z,5.40
2018-12-25T15:51:47.401Z,5.40
2018-12-25T15:54:28.508Z,5.50
2018-12-25T15:57:09.491Z,5.40
2018-12-25T15:59:50.395Z,5.40
2018-12-25T16:02:30.832Z,5.30
2018-12-25T16:05:11.298Z,5.30
2018-12-25T16:07:51.958Z,5.30
2018-12-25T16:10:32.613Z,5.30
2018-12-25T16:13:13.340Z,5.40
2018-12-25T16:15:54.007Z,5.40
2018-12-25T16:18:34.634Z,5.40
2018-12-25T16:21:15.172Z,5.40
2018-12-25T16:23:55.598Z,5.30
2018-12-25T16:26:36.086Z,5.30
2018-12-25T16:29:17.050Z,5.30
2018-12-25T16:31:57.813Z,5.20
2018-12-25T16:34:38.285Z,5.20
2018-12-25T16:37:19.221Z,5.20
2018-12-25T16:40:00.431Z,5.20
2018-12-25T16:42:41.609Z,5.10
2018-12-25T16:45:22.278Z,5.10
2018-12-25T16:48:03.136Z,5.10
2018-12-25T16:50:44.027Z,5.10
2018-12-25T16:53:24.732Z,5.20
2018-12-25T16:56:05.593Z,5.10
2018-12-25T16:58:46.063Z,5.10
2018-12-25T17:01:26.833Z,5.10
2018-12-25T17:04:07.697Z,5.20
2018-12-25T17:06:48.339Z,5.20
2018-12-25T17:09:29.493Z,5.20
2018-12-25T17:12:10.678Z,5.20
2018-12-25T17:14:51.267Z,5.10
2018-12-25T17:17:32.022Z,5.10
2018-12-25T17:20:12.589Z,5.20
2018-12-25T17:22:53.225Z,5.20
2018-12-25T17:25:34.105Z,5.10
2018-12-25T17:28:14.936Z,5.10
2018-12-25T17:30:55.510Z,5.10
2018-12-25T17:33:36.464Z,5.20
2018-12-25T17:36:17.311Z,5.10
2018-12-25T17:38:57.955Z,5.10
2018-12-25T17:41:38.850Z,5.10
2018-12-25T17:44:19.551Z,5.00
2018-12-25T17:47:00.757Z,5.00
2018-12-25T17:49:41.693Z,4.90
2018-12-25T17:52:22.290Z,4.90
2018-12-25T17:55:03.529Z,4.80
2018-12-25T17:57:44.379Z,4.80
2018-12-25T18:00:25.380Z,4.80
2018-12-25T18:03:06.560Z,4.70
2018-12-25T18:05:47.352Z,4.70
2018-12-25T18:08:27.800Z,4.60
2018-12-25T18:11:09.097Z,4.60
2018-12-25T18:13:49.423Z,4.50
2018-12-25T18:16:30.321Z,4.50
2018-12-25T18:19:10.966Z,4.50
2018-12-25T18:21:51.503Z,4.50
2018-12-25T18:24:32.368Z,4.50
2018-12-25T18:27:13.105Z,4.50
2018-12-25T18:29:53.762Z,4.40
2018-12-25T18:32:34.530Z,4.40
2018-12-25T18:35:15.238Z,4.30
2018-12-25T18:37:55.729Z,4.40
2018-12-25T18:40:36.472Z,4.30
2018-12-25T18:43:17.466Z,4.30
2018-12-25T18:45:58.177Z,4.30
2018-12-25T18:48:38.719Z,4.20
2018-12-25T18:51:20.647Z,4.20
2018-12-25T18:54:01.810Z,4.20
2018-12-25T18:56:42.625Z,4.20
2018-12-25T18:59:23.231Z,4.10
2018-12-25T19:02:04.147Z,4.10
2018-12-25T19:04:44.847Z,4.10
2018-12-25T19:07:25.810Z,4.00
2018-12-25T19:10:06.182Z,4.00
2018-12-25T19:12:46.816Z,4.00
2018-12-25T19:15:27.910Z,3.90
2018-12-25T19:18:08.688Z,3.90
2018-12-25T19:20:49.259Z,3.80
2018-12-25T19:23:29.744Z,3.80
2018-12-25T19:26:10.632Z,3.80
2018-12-25T19:28:51.046Z,3.80
2018-12-25T19:31:31.423Z,3.70
2018-12-25T19:34:12.362Z,3.60
2018-12-25T19:36:52.858Z,3.70
2018-12-25T19:39:33.690Z,3.70
2018-12-25T19:42:14.252Z,3.70
2018-12-25T19:44:55.459Z,3.60
2018-12-25T19:47:35.824Z,3.70
2018-12-25T19:50:16.300Z,3.60
2018-12-25T19:52:57.172Z,3.60
2018-12-25T19:55:37.550Z,3.60
2018-12-25T19:58:18.490Z,3.60
2018-12-25T20:00:59.140Z,3.60
2018-12-25T20:03:39.413Z,3.50
2018-12-25T20:06:19.920Z,3.50
2018-12-25T20:09:00.833Z,3.40
2018-12-25T20:11:41.261Z,3.40
2018-12-25T20:14:22.110Z,3.30
2018-12-25T20:17:02.398Z,3.40
2018-12-25T20:19:43.290Z,3.30
2018-12-25T20:22:24.180Z,3.30
2018-12-25T20:25:04.861Z,3.30
2018-12-25T20:27:45.662Z,3.30
2018-12-25T20:30:26.280Z,3.30
2018-12-25T20:33:06.847Z,3.20
2018-12-25T20:35:47.385Z,3.20
2018-12-25T20:38:28.160Z,3.20
2018-12-25T20:41:09.275Z,3.20
2018-12-25T20:43:49.407Z,3.20
2018-12-25T20:46:30.727Z,3.10
2018-12-25T20:49:11.282Z,3.10
2018-12-25T20:51:51.679Z,3.10
2018-12-25T20:54:32.579Z,3.10
2018-12-25T20:57:13.248Z,3.00
2018-12-25T20:59:54.088Z,3.00
2018-12-25T21:02:34.665Z,2.90
2018-12-25T21:05:15.546Z,2.70
2018-12-25T21:07:56.520Z,2.80
2018-12-25T21:10:37.498Z,2.70
2018-12-25T21:13:17.919Z,2.70
2018-12-25T21:15:58.506Z,2.70
2018-12-25T21:18:39.349Z,2.70
2018-12-25T21:21:20.136Z,2.70
2018-12-25T21:24:00.447Z,2.60
2018-12-25T21:26:41.671Z,2.60
2018-12-25T21:29:22.160Z,2.60
2018-12-25T21:32:02.334Z,2.50
2018-12-25T21:34:43.374Z,2.40
2018-12-25T21:37:23.783Z,2.40
2018-12-25T21:40:04.632Z,2.30
2018-12-25T21:42:45.198Z,2.20
2018-12-25T21:45:25.894Z,2.20
2018-12-25T21:48:07.000Z,2.20
2018-12-25T21:50:47.449Z,2.10
2018-12-25T21:53:27.863Z,2.10
2018-12-25T21:56:08.676Z,2.10
2018-12-25T21:58:49.211Z,2.10
2018-12-25T22:01:30.026Z,2.00
2018-12-25T22:04:11.011Z,2.10
2018-12-25T22:06:51.993Z,2.10
2018-12-25T22:09:32.699Z,2.00
2018-12-25T22:12:13.672Z,2.00
2018-12-25T22:14:54.439Z,2.00
2018-12-25T22:17:38.036Z,2.00
2018-12-25T22:20:19.132Z,2.00
2018-12-25T22:23:00.015Z,1.90
2018-12-25T22:25:42.061Z,1.90
2018-12-25T22:28:22.657Z,1.90
2018-12-25T22:31:03.224Z,1.90
2018-12-25T22:33:43.920Z,1.90
2018-12-25T22:36:24.615Z,1.90
2018-12-25T22:39:05.008Z,1.90
2018-12-25T22:41:45.642Z,1.90
2018-12-25T22:44:26.558Z,1.90
2018-12-25T22:47:07.488Z,1.90
2018-12-25T22:49:47.744Z,1.90
2018-12-25T22:52:28.183Z,1.90
2018-12-25T22:55:08.591Z,1.70
2018-12-25T22:57:49.406Z,1.80
2018-12-25T23:00:29.880Z,1.80
2018-12-25T23:03:10.611Z,1.70
2018-12-25T23:05:50.973Z,1.70
2018-12-25T23:08:31.606Z,1.60
2018-12-25T23:11:12.488Z,1.50
2018-12-25T23:13:53.419Z,1.40
2018-12-25T23:16:34.611Z,1.40
2018-12-25T23:19:15.097Z,1.40
2018-12-25T23:21:56.044Z,1.40
2018-12-25T23:24:36.607Z,1.40
2018-12-25T23:27:17.052Z,1.30
2018-12-25T23:29:58.171Z,1.30
2018-12-25T23:32:39.077Z,1.30
2018-12-25T23:35:19.703Z,1.30
2018-12-25T23:38:00.188Z,1.30
2018-12-25T23:40:40.689Z,1.20
2018-12-25T23:43:21.479Z,1.20
2018-12-25T23:46:02.440Z,1.20
2018-12-25T23:48:43.240Z,1.30
2018-12-25T23:51:24.040Z,1.30
2018-12-25T23:54:04.344Z,1.20
2018-12-25T23:56:45.505Z,1.10
2018-12-25T23:59:26.150Z,1.10
